sensor_id;sensor_type;location;lat;lon;timestamp;pressure;altitude;pressure_sealevel;temperature;humidity
77639;BME280;66802;52.574;14.398;2023-03-04T00:01:53;101807.63;;;1.90;77.01
77639;BME280;66802;52.574;14.398;2023-03-04T00:04:19;101812.88;;;1.92;77.44
77639;BME280;66802;52.574;14.398;2023-03-04T00:06:44;101796.91;;;1.92;77.48
77639;BME280;66802;52.574;14.398;2023-03-04T00:09:10;101802.44;;;1.87;76.95
77639;BME280;66802;52.574;14.398;2023-03-04T00:11:36;101805.75;;;1.92;77.45
77639;BME280;66802;52.574;14.398;2023-03-04T00:14:02;101802.31;;;1.90;77.53
77639;BME280;66802;52.574;14.398;2023-03-04T00:16:27;101802.31;;;1.90;77.33
77639;BME280;66802;52.574;14.398;2023-03-04T00:18:54;101795.19;;;1.91;77.72
77639;BME280;66802;52.574;14.398;2023-03-04T00:21:20;101803.44;;;1.84;77.31
77639;BME280;66802;52.574;14.398;2023-03-04T00:23:46;101798.97;;;1.85;77.82
77639;BME280;66802;52.574;14.398;2023-03-04T00:26:12;101790.13;;;1.84;78.47
77639;BME280;66802;52.574;14.398;2023-03-04T00:28:38;101794.53;;;1.86;78.08
77639;BME280;66802;52.574;14.398;2023-03-04T00:31:05;101797.25;;;1.84;78.65
77639;BME280;66802;52.574;14.398;2023-03-04T00:33:31;101793.81;;;1.82;78.67
77639;BME280;66802;52.574;14.398;2023-03-04T00:35:56;101807.63;;;1.90;78.21
77639;BME280;66802;52.574;14.398;2023-03-04T00:38:22;101795.53;;;2.02;78.93
77639;BME280;66802;52.574;14.398;2023-03-04T00:40:48;101794.22;;;2.10;78.38
77639;BME280;66802;52.574;14.398;2023-03-04T00:43:13;101792.41;;;2.11;78.41
77639;BME280;66802;52.574;14.398;2023-03-04T00:45:39;101776.91;;;2.19;78.24
77639;BME280;66802;52.574;14.398;2023-03-04T00:48:05;101777.72;;;2.21;77.98
77639;BME280;66802;52.574;14.398;2023-03-04T00:50:30;101776.63;;;2.25;78.40
77639;BME280;66802;52.574;14.398;2023-03-04T00:52:56;101781.16;;;2.23;78.73
77639;BME280;66802;52.574;14.398;2023-03-04T00:55:23;101774.59;;;2.30;78.22
77639;BME280;66802;52.574;14.398;2023-03-04T00:57:51;101777.25;;;2.30;78.11
77639;BME280;66802;52.574;14.398;2023-03-04T05:01:04;101553.50;;;2.94;79.89
77639;BME280;66802;52.574;14.398;2023-03-04T05:03:30;101554.63;;;2.90;80.10
77639;BME280;66802;52.574;14.398;2023-03-04T05:05:55;101557.09;;;2.93;79.49
77639;BME280;66802;52.574;14.398;2023-03-04T05:08:22;101549.88;;;2.96;79.86
77639;BME280;66802;52.574;14.398;2023-03-04T05:10:49;101549.22;;;2.92;79.98
77639;BME280;66802;52.574;14.398;2023-03-04T05:13:14;101550.25;;;2.89;80.05
77639;BME280;66802;52.574;14.398;2023-03-04T05:15:40;101549.09;;;2.93;79.81
77639;BME280;66802;52.574;14.398;2023-03-04T05:18:05;101548.88;;;2.98;79.96
77639;BME280;66802;52.574;14.398;2023-03-04T05:20:31;101546.03;;;3.01;79.73
77639;BME280;66802;52.574;14.398;2023-03-04T05:22:57;101548.63;;;3.03;79.66
77639;BME280;66802;52.574;14.398;2023-03-04T05:25:22;101541.72;;;2.99;80.49
77639;BME280;66802;52.574;14.398;2023-03-04T05:27:48;101537.94;;;3.03;79.82
77639;BME280;66802;52.574;14.398;2023-03-04T05:30:13;101551.09;;;3.06;79.80
77639;BME280;66802;52.574;14.398;2023-03-04T05:32:39;101541.44;;;3.03;79.94
77639;BME280;66802;52.574;14.398;2023-03-04T05:35:05;101539.22;;;2.96;80.33
77639;BME280;66802;52.574;14.398;2023-03-04T05:37:30;101536.97;;;3.04;80.34
77639;BME280;66802;52.574;14.398;2023-03-04T05:39:56;101533.19;;;3.08;79.87
77639;BME280;66802;52.574;14.398;2023-03-04T05:42:22;101533.13;;;3.09;80.44
77639;BME280;66802;52.574;14.398;2023-03-04T05:44:47;101538.38;;;3.11;79.96
77639;BME280;66802;52.574;14.398;2023-03-04T05:47:13;101534.91;;;3.09;80.17
77639;BME280;66802;52.574;14.398;2023-03-04T05:49:38;101530.38;;;3.11;79.90
77639;BME280;66802;52.574;14.398;2023-03-04T05:52:05;101535.25;;;3.18;79.47
77639;BME280;66802;52.574;14.398;2023-03-04T05:54:30;101541.97;;;3.10;80.44
77639;BME280;66802;52.574;14.398;2023-03-04T05:56:56;101543.34;;;3.17;80.45
77639;BME280;66802;52.574;14.398;2023-03-04T05:59:22;101542.47;;;3.16;80.17
77639;BME280;66802;52.574;14.398;2023-03-04T06:01:47;101544.72;;;3.24;79.58
77639;BME280;66802;52.574;14.398;2023-03-04T06:04:13;101539.81;;;3.32;79.39
77639;BME280;66802;52.574;14.398;2023-03-04T06:06:39;101542.72;;;3.27;79.42
77639;BME280;66802;52.574;14.398;2023-03-04T06:09:04;101547.19;;;3.27;79.69
77639;BME280;66802;52.574;14.398;2023-03-04T06:11:30;101540.59;;;3.34;79.79
77639;BME280;66802;52.574;14.398;2023-03-04T06:13:55;101544.00;;;3.36;79.21
77639;BME280;66802;52.574;14.398;2023-03-04T06:16:21;101545.56;;;3.40;79.03
77639;BME280;66802;52.574;14.398;2023-03-04T06:18:46;101550.81;;;3.42;79.85
77639;BME280;66802;52.574;14.398;2023-03-04T06:21:12;101544.53;;;3.43;79.49
77639;BME280;66802;52.574;14.398;2023-03-04T06:23:38;101556.91;;;3.44;79.79
77639;BME280;66802;52.574;14.398;2023-03-04T06:26:05;101552.16;;;3.49;79.67
77639;BME280;66802;52.574;14.398;2023-03-04T06:28:33;101543.28;;;3.48;80.07
77639;BME280;66802;52.574;14.398;2023-03-04T06:30:59;101553.44;;;3.57;79.77
77639;BME280;66802;52.574;14.398;2023-03-04T06:33:24;101558.97;;;3.54;80.36
77639;BME280;66802;52.574;14.398;2023-03-04T06:35:55;101548.47;;;3.51;80.56
77639;BME280;66802;52.574;14.398;2023-03-04T06:38:21;101559.81;;;3.55;80.34
77639;BME280;66802;52.574;14.398;2023-03-04T06:40:47;101565.75;;;3.60;80.93
77639;BME280;66802;52.574;14.398;2023-03-04T06:43:13;101555.34;;;3.55;80.79
77639;BME280;66802;52.574;14.398;2023-03-04T06:45:38;101556.09;;;3.57;81.28
77639;BME280;66802;52.574;14.398;2023-03-04T06:48:04;101565.56;;;3.63;81.65
77639;BME280;66802;52.574;14.398;2023-03-04T06:50:30;101554.19;;;3.59;81.33
77639;BME280;66802;52.574;14.398;2023-03-04T06:52:56;101555.94;;;3.60;81.71
77639;BME280;66802;52.574;14.398;2023-03-04T06:55:22;101553.44;;;3.57;81.49
77639;BME280;66802;52.574;14.398;2023-03-04T06:57:47;101559.53;;;3.59;81.96
77639;BME280;66802;52.574;14.398;2023-03-04T07:00:13;101561.00;;;3.65;82.24
77639;BME280;66802;52.574;14.398;2023-03-04T07:02:39;101557.09;;;3.71;82.00
77639;BME280;66802;52.574;14.398;2023-03-04T07:05:05;101559.13;;;3.67;82.07
77639;BME280;66802;52.574;14.398;2023-03-04T07:07:31;101564.25;;;3.70;82.94
77639;BME280;66802;52.574;14.398;2023-03-04T07:09:56;101558.91;;;3.70;82.92
77639;BME280;66802;52.574;14.398;2023-03-04T07:12:22;101567.69;;;3.72;82.58
77639;BME280;66802;52.574;14.398;2023-03-04T07:14:47;101558.75;;;3.73;83.20
77639;BME280;66802;52.574;14.398;2023-03-04T07:17:13;101564.09;;;3.73;83.07
77639;BME280;66802;52.574;14.398;2023-03-04T07:19:39;101568.31;;;3.77;82.59
77639;BME280;66802;52.574;14.398;2023-03-04T07:22:06;101572.78;;;3.77;83.62
77639;BME280;66802;52.574;14.398;2023-03-04T07:24:31;101569.34;;;3.75;83.42
77639;BME280;66802;52.574;14.398;2023-03-04T07:26:57;101571.84;;;3.78;83.11
77639;BME280;66802;52.574;14.398;2023-03-04T07:29:23;101566.38;;;3.79;83.69
77639;BME280;66802;52.574;14.398;2023-03-04T07:31:48;101579.94;;;3.76;83.32
77639;BME280;66802;52.574;14.398;2023-03-04T07:34:14;101577.16;;;3.78;83.02
77639;BME280;66802;52.574;14.398;2023-03-04T07:36:41;101566.88;;;3.86;82.88
77639;BME280;66802;52.574;14.398;2023-03-04T07:39:07;101573.97;;;3.87;82.73
77639;BME280;66802;52.574;14.398;2023-03-04T07:41:33;101573.44;;;3.80;83.19
77639;BME280;66802;52.574;14.398;2023-03-04T07:44:03;101580.25;;;3.86;82.53
77639;BME280;66802;52.574;14.398;2023-03-04T07:46:29;101577.97;;;3.94;83.03
77639;BME280;66802;52.574;14.398;2023-03-04T07:48:55;101570.34;;;3.88;83.43
77639;BME280;66802;52.574;14.398;2023-03-04T07:51:23;101573.66;;;3.91;83.04
77639;BME280;66802;52.574;14.398;2023-03-04T07:53:51;101563.84;;;3.92;83.36
77639;BME280;66802;52.574;14.398;2023-03-04T07:56:22;101564.69;;;3.92;83.80
77639;BME280;66802;52.574;14.398;2023-03-04T07:58:49;101567.97;;;3.97;82.87
77639;BME280;66802;52.574;14.398;2023-03-04T08:01:20;101567.09;;;3.97;82.42
77639;BME280;66802;52.574;14.398;2023-03-04T08:03:46;101560.53;;;4.02;82.27
77639;BME280;66802;52.574;14.398;2023-03-04T08:06:15;101565.00;;;4.02;82.30
77639;BME280;66802;52.574;14.398;2023-03-04T08:08:41;101560.34;;;4.06;82.26
77639;BME280;66802;52.574;14.398;2023-03-04T08:11:17;101558.44;;;4.08;82.46
77639;BME280;66802;52.574;14.398;2023-03-04T08:13:44;101559.00;;;4.13;82.05
77639;BME280;66802;52.574;14.398;2023-03-04T08:16:12;101560.66;;;4.15;81.78
77639;BME280;66802;52.574;14.398;2023-03-04T08:18:42;101556.34;;;4.13;82.15
77639;BME280;66802;52.574;14.398;2023-03-04T08:21:11;101549.97;;;4.15;82.09
77639;BME280;66802;52.574;14.398;2023-03-04T08:23:39;101553.22;;;4.20;81.98
77639;BME280;66802;52.574;14.398;2023-03-04T08:26:13;101547.13;;;4.18;81.22
77639;BME280;66802;52.574;14.398;2023-03-04T08:28:39;101552.06;;;4.24;81.42
77639;BME280;66802;52.574;14.398;2023-03-04T08:31:06;101550.84;;;4.30;81.23
77639;BME280;66802;52.574;14.398;2023-03-04T08:33:32;101551.63;;;4.32;80.88
77639;BME280;66802;52.574;14.398;2023-03-04T08:35:59;101547.97;;;4.33;81.67
77639;BME280;66802;52.574;14.398;2023-03-04T08:38:24;101546.47;;;4.43;81.50
77639;BME280;66802;52.574;14.398;2023-03-04T08:40:55;101545.97;;;4.51;80.09
77639;BME280;66802;52.574;14.398;2023-03-04T08:43:23;101543.88;;;4.56;80.23
77639;BME280;66802;52.574;14.398;2023-03-04T08:45:49;101538.06;;;4.63;79.79
77639;BME280;66802;52.574;14.398;2023-03-04T08:48:15;101537.19;;;4.63;79.53
77639;BME280;66802;52.574;14.398;2023-03-04T08:50:42;101543.09;;;4.68;80.06
77639;BME280;66802;52.574;14.398;2023-03-04T08:53:08;101539.38;;;4.70;79.50
77639;BME280;66802;52.574;14.398;2023-03-04T08:55:37;101544.44;;;4.75;79.02
77639;BME280;66802;52.574;14.398;2023-03-04T08:58:03;101540.06;;;4.74;78.91
77639;BME280;66802;52.574;14.398;2023-03-04T09:00:28;101539.47;;;4.69;79.15
77639;BME280;66802;52.574;14.398;2023-03-04T09:02:54;101536.03;;;4.67;78.78
77639;BME280;66802;52.574;14.398;2023-03-04T09:05:20;101543.78;;;4.71;78.73
77639;BME280;66802;52.574;14.398;2023-03-04T09:07:45;101536.59;;;4.72;78.53
77639;BME280;66802;52.574;14.398;2023-03-04T09:10:12;101534.38;;;4.78;78.34
77639;BME280;66802;52.574;14.398;2023-03-04T09:12:37;101542.03;;;4.85;76.60
77639;BME280;66802;52.574;14.398;2023-03-04T09:15:04;101531.44;;;4.83;76.74
77639;BME280;66802;52.574;14.398;2023-03-04T09:17:31;101536.47;;;4.88;76.59
77639;BME280;66802;52.574;14.398;2023-03-04T09:19:57;101539.53;;;4.96;75.10
77639;BME280;66802;52.574;14.398;2023-03-04T09:22:23;101536.06;;;5.08;74.71
77639;BME280;66802;52.574;14.398;2023-03-04T09:24:48;101537.75;;;5.09;73.65
77639;BME280;66802;52.574;14.398;2023-03-04T09:27:14;101542.25;;;5.08;73.62
77639;BME280;66802;52.574;14.398;2023-03-04T09:29:40;101532.22;;;5.12;72.58
77639;BME280;66802;52.574;14.398;2023-03-04T09:32:07;101538.25;;;5.16;73.04
77639;BME280;66802;52.574;14.398;2023-03-04T09:34:33;101536.97;;;5.21;72.63
77639;BME280;66802;52.574;14.398;2023-03-04T09:36:59;101530.75;;;5.21;72.20
77639;BME280;66802;52.574;14.398;2023-03-04T09:39:24;101531.22;;;5.27;73.04
77639;BME280;66802;52.574;14.398;2023-03-04T09:41:54;101534.00;;;5.26;72.65
77639;BME280;66802;52.574;14.398;2023-03-04T09:44:23;101542.13;;;5.24;72.26
77639;BME280;66802;52.574;14.398;2023-03-04T09:46:50;101533.69;;;5.30;72.24
77639;BME280;66802;52.574;14.398;2023-03-04T09:49:19;101545.38;;;5.29;71.46
77639;BME280;66802;52.574;14.398;2023-03-04T10:00:12;101536.22;;;5.46;69.32
77639;BME280;66802;52.574;14.398;2023-03-04T10:05:20;101534.47;;;5.72;70.12
77639;BME280;66802;52.574;14.398;2023-03-04T10:07:55;101533.00;;;5.80;70.11
77639;BME280;66802;52.574;14.398;2023-03-04T10:10:29;101524.75;;;5.83;70.90
77639;BME280;66802;52.574;14.398;2023-03-04T10:12:57;101540.75;;;5.98;67.60
77639;BME280;66802;52.574;14.398;2023-03-04T10:20:49;101537.03;;;6.13;68.16
77639;BME280;66802;52.574;14.398;2023-03-04T10:23:22;101537.16;;;6.24;68.34
77639;BME280;66802;52.574;14.398;2023-03-04T10:25:49;101532.09;;;6.32;67.63
77639;BME280;66802;52.574;14.398;2023-03-04T10:28:28;101520.72;;;6.41;67.11
77639;BME280;66802;52.574;14.398;2023-03-04T10:33:34;101521.16;;;6.48;68.40
77639;BME280;66802;52.574;14.398;2023-03-04T10:39:04;101522.97;;;6.47;67.65
77639;BME280;66802;52.574;14.398;2023-03-04T10:41:31;101514.94;;;6.47;68.59
77639;BME280;66802;52.574;14.398;2023-03-04T10:44:04;101515.34;;;6.54;67.39
77639;BME280;66802;52.574;14.398;2023-03-04T10:46:44;101517.25;;;6.65;66.52
77639;BME280;66802;52.574;14.398;2023-03-04T10:49:12;101516.19;;;6.67;64.83
77639;BME280;66802;52.574;14.398;2023-03-04T10:51:45;101523.16;;;6.70;65.01
77639;BME280;66802;52.574;14.398;2023-03-04T10:57:14;101516.78;;;6.83;63.92
77639;BME280;66802;52.574;14.398;2023-03-04T11:00:19;101520.66;;;6.92;62.53
77639;BME280;66802;52.574;14.398;2023-03-04T11:02:46;101521.16;;;6.97;62.97
77639;BME280;66802;52.574;14.398;2023-03-04T11:05:22;101511.34;;;7.09;60.55
77639;BME280;66802;52.574;14.398;2023-03-04T11:07:58;101515.63;;;7.11;60.47
77639;BME280;66802;52.574;14.398;2023-03-04T11:18:16;101525.78;;;6.95;61.22
77639;BME280;66802;52.574;14.398;2023-03-04T11:20:47;101535.66;;;6.82;61.44
77639;BME280;66802;52.574;14.398;2023-03-04T11:23:22;101535.66;;;6.82;60.90
77639;BME280;66802;52.574;14.398;2023-03-04T11:25:55;101531.16;;;6.82;61.56
77639;BME280;66802;52.574;14.398;2023-03-04T11:28:45;101534.00;;;6.81;59.35
77639;BME280;66802;52.574;14.398;2023-03-04T11:31:17;101538.03;;;6.86;59.45
77639;BME280;66802;52.574;14.398;2023-03-04T11:37:00;101532.25;;;6.80;59.27
77639;BME280;66802;52.574;14.398;2023-03-04T11:39:41;101534.00;;;6.68;60.33
77639;BME280;66802;52.574;14.398;2023-03-04T11:42:30;101537.22;;;6.60;60.67
77639;BME280;66802;52.574;14.398;2023-03-04T11:44:58;101539.03;;;6.73;59.29
77639;BME280;66802;52.574;14.398;2023-03-04T11:48:03;101535.06;;;6.78;60.36
77639;BME280;66802;52.574;14.398;2023-03-04T11:51:22;101532.47;;;6.77;59.64
77639;BME280;66802;52.574;14.398;2023-03-04T11:56:36;101540.22;;;6.69;59.08
77639;BME280;66802;52.574;14.398;2023-03-04T12:04:42;101524.63;;;6.86;58.20
77639;BME280;66802;52.574;14.398;2023-03-04T12:07:42;101534.34;;;7.00;59.37
77639;BME280;66802;52.574;14.398;2023-03-04T12:29:03;101534.56;;;6.97;58.52
77639;BME280;66802;52.574;14.398;2023-03-04T12:31:36;101534.06;;;6.92;59.01
77639;BME280;66802;52.574;14.398;2023-03-04T12:34:26;101537.56;;;6.92;57.89
77639;BME280;66802;52.574;14.398;2023-03-04T12:43:18;101536.00;;;6.90;59.27
77639;BME280;66802;52.574;14.398;2023-03-04T12:49:21;101536.88;;;6.78;58.68
77639;BME280;66802;52.574;14.398;2023-03-04T12:52:38;101526.47;;;6.73;58.40
77639;BME280;66802;52.574;14.398;2023-03-04T12:54:55;101536.59;;;6.70;57.73
77639;BME280;66802;52.574;14.398;2023-03-04T12:57:26;101536.44;;;6.71;59.53
77639;BME280;66802;52.574;14.398;2023-03-04T13:03:14;101534.41;;;6.75;59.64
77639;BME280;66802;52.574;14.398;2023-03-04T13:08:58;101529.16;;;6.60;59.08
77639;BME280;66802;52.574;14.398;2023-03-04T13:17:35;101541.41;;;6.39;59.42
77639;BME280;66802;52.574;14.398;2023-03-04T13:25:42;101529.75;;;6.15;60.12
77639;BME280;66802;52.574;14.398;2023-03-04T13:41:13;101528.66;;;6.30;60.06
77639;BME280;66802;52.574;14.398;2023-03-04T13:43:52;101527.91;;;6.28;59.47
77639;BME280;66802;52.574;14.398;2023-03-04T13:51:37;101530.59;;;6.28;59.01
77639;BME280;66802;52.574;14.398;2023-03-04T13:54:16;101535.22;;;6.26;59.03
77639;BME280;66802;52.574;14.398;2023-03-04T13:56:47;101536.81;;;6.29;57.71
77639;BME280;66802;52.574;14.398;2023-03-04T13:59:43;101532.75;;;6.23;57.96
77639;BME280;66802;52.574;14.398;2023-03-04T14:02:19;101535.41;;;6.10;59.31
77639;BME280;66802;52.574;14.398;2023-03-04T14:07:34;101535.41;;;6.10;60.31
77639;BME280;66802;52.574;14.398;2023-03-04T14:10:03;101526.31;;;6.13;59.77
77639;BME280;66802;52.574;14.398;2023-03-04T14:12:43;101527.28;;;6.12;60.21
77639;BME280;66802;52.574;14.398;2023-03-04T14:17:52;101529.41;;;6.07;60.83
77639;BME280;66802;52.574;14.398;2023-03-04T14:20:36;101519.34;;;6.10;61.98
77639;BME280;66802;52.574;14.398;2023-03-04T14:23:23;101515.50;;;6.14;60.21
77639;BME280;66802;52.574;14.398;2023-03-04T14:25:49;101517.19;;;6.15;60.50
77639;BME280;66802;52.574;14.398;2023-03-04T14:28:19;101518.28;;;6.13;61.18
77639;BME280;66802;52.574;14.398;2023-03-04T14:30:54;101512.03;;;6.12;60.76
77639;BME280;66802;52.574;14.398;2023-03-04T14:33:24;101520.00;;;6.14;60.50
77639;BME280;66802;52.574;14.398;2023-03-04T14:35:53;101521.47;;;6.18;60.61
77639;BME280;66802;52.574;14.398;2023-03-04T14:38:25;101520.09;;;6.25;59.96
77639;BME280;66802;52.574;14.398;2023-03-04T14:43:27;101507.22;;;6.30;59.96
77639;BME280;66802;52.574;14.398;2023-03-04T14:45:57;101514.28;;;6.31;59.73
77639;BME280;66802;52.574;14.398;2023-03-04T14:48:31;101507.44;;;6.27;59.91
77639;BME280;66802;52.574;14.398;2023-03-04T14:51:00;101504.97;;;6.24;59.15
77639;BME280;66802;52.574;14.398;2023-03-04T14:53:28;101500.78;;;6.20;59.05
77639;BME280;66802;52.574;14.398;2023-03-04T14:58:28;101509.69;;;6.20;58.01
77639;BME280;66802;52.574;14.398;2023-03-04T15:01:14;101506.34;;;6.30;57.22
77639;BME280;66802;52.574;14.398;2023-03-04T15:03:48;101505.81;;;6.12;57.69
77639;BME280;66802;52.574;14.398;2023-03-04T15:06:19;101518.06;;;6.03;57.59
77639;BME280;66802;52.574;14.398;2023-03-04T15:08:53;101516.13;;;5.93;58.05
77639;BME280;66802;52.574;14.398;2023-03-04T15:11:24;101518.91;;;5.91;58.53
77639;BME280;66802;52.574;14.398;2023-03-04T15:13:53;101515.00;;;5.82;59.49
77639;BME280;66802;52.574;14.398;2023-03-04T15:16:22;101517.03;;;5.79;60.06
77639;BME280;66802;52.574;14.398;2023-03-04T15:19:02;101518.63;;;5.81;59.73
77639;BME280;66802;52.574;14.398;2023-03-04T15:21:39;101536.63;;;5.79;60.85
77639;BME280;66802;52.574;14.398;2023-03-04T15:24:07;101537.84;;;5.48;64.13
77639;BME280;66802;52.574;14.398;2023-03-04T15:26:38;101553.00;;;5.35;64.61
77639;BME280;66802;52.574;14.398;2023-03-04T15:29:17;101550.28;;;5.08;65.82
77639;BME280;66802;52.574;14.398;2023-03-04T15:31:43;101545.06;;;4.93;66.87
77639;BME280;66802;52.574;14.398;2023-03-04T15:34:11;101550.34;;;4.80;66.87
77639;BME280;66802;52.574;14.398;2023-03-04T15:36:37;101554.47;;;4.71;68.00
77639;BME280;66802;52.574;14.398;2023-03-04T15:39:03;101548.44;;;4.68;67.61
77639;BME280;66802;52.574;14.398;2023-03-04T15:41:29;101551.97;;;4.68;67.69
77639;BME280;66802;52.574;14.398;2023-03-04T15:43:54;101547.81;;;4.64;67.10
77639;BME280;66802;52.574;14.398;2023-03-04T15:46:20;101550.16;;;4.55;67.88
77639;BME280;66802;52.574;14.398;2023-03-04T15:48:47;101550.16;;;4.55;67.75
77639;BME280;66802;52.574;14.398;2023-03-04T15:51:16;101545.50;;;4.58;67.30
77639;BME280;66802;52.574;14.398;2023-03-04T15:53:50;101553.22;;;4.49;67.93
77639;BME280;66802;52.574;14.398;2023-03-04T15:56:22;101550.19;;;4.40;67.03
77639;BME280;66802;52.574;14.398;2023-03-04T15:59:12;101552.94;;;4.39;67.18
77639;BME280;66802;52.574;14.398;2023-03-04T16:01:38;101559.25;;;4.38;67.15
77639;BME280;66802;52.574;14.398;2023-03-04T16:04:04;101562.88;;;4.37;66.84
77639;BME280;66802;52.574;14.398;2023-03-04T16:06:31;101564.84;;;4.33;65.66
77639;BME280;66802;52.574;14.398;2023-03-04T16:08:58;101559.91;;;4.27;65.64
77639;BME280;66802;52.574;14.398;2023-03-04T16:11:26;101559.63;;;4.18;66.19
77639;BME280;66802;52.574;14.398;2023-03-04T16:13:53;101570.56;;;4.13;66.24
77639;BME280;66802;52.574;14.398;2023-03-04T16:16:19;101572.59;;;4.10;66.87
77639;BME280;66802;52.574;14.398;2023-03-04T16:18:45;101567.59;;;4.03;67.15
77639;BME280;66802;52.574;14.398;2023-03-04T16:21:14;101577.41;;;4.03;67.33
77639;BME280;66802;52.574;14.398;2023-03-04T16:23:44;101574.66;;;4.04;67.99
77639;BME280;66802;52.574;14.398;2023-03-04T16:26:13;101576.28;;;4.07;67.61
77639;BME280;66802;52.574;14.398;2023-03-04T16:28:38;101579.81;;;4.08;68.38
77639;BME280;66802;52.574;14.398;2023-03-04T16:31:05;101587.16;;;4.04;68.56
77639;BME280;66802;52.574;14.398;2023-03-04T16:33:30;101583.78;;;4.00;68.40
77639;BME280;66802;52.574;14.398;2023-03-04T16:35:56;101584.00;;;3.97;68.84
77639;BME280;66802;52.574;14.398;2023-03-04T16:38:25;101583.47;;;3.91;69.23
77639;BME280;66802;52.574;14.398;2023-03-04T16:40:54;101578.06;;;3.92;68.47
77639;BME280;66802;52.574;14.398;2023-03-04T16:43:21;101579.88;;;3.92;68.20
77639;BME280;66802;52.574;14.398;2023-03-04T16:45:47;101584.25;;;3.93;67.80
77639;BME280;66802;52.574;14.398;2023-03-04T16:48:14;101594.00;;;3.94;68.34
77639;BME280;66802;52.574;14.398;2023-03-04T16:50:41;101593.13;;;3.93;68.39
77639;BME280;66802;52.574;14.398;2023-03-04T16:55:50;101592.03;;;3.82;68.31
77639;BME280;66802;52.574;14.398;2023-03-04T16:58:16;101598.41;;;3.79;68.54
77639;BME280;66802;52.574;14.398;2023-03-04T17:00:42;101606.44;;;3.79;68.65
77639;BME280;66802;52.574;14.398;2023-03-04T17:03:09;101607.13;;;3.83;68.87
77639;BME280;66802;52.574;14.398;2023-03-04T17:05:36;101601.94;;;3.80;68.90
77639;BME280;66802;52.574;14.398;2023-03-04T17:08:01;101606.09;;;3.85;67.78
77639;BME280;66802;52.574;14.398;2023-03-04T17:10:27;101609.22;;;3.78;67.81
77639;BME280;66802;52.574;14.398;2023-03-04T17:12:53;101611.09;;;3.76;68.47
77639;BME280;66802;52.574;14.398;2023-03-04T17:15:19;101614.97;;;3.70;68.11
77639;BME280;66802;52.574;14.398;2023-03-04T17:17:44;101611.72;;;3.65;68.67
77639;BME280;66802;52.574;14.398;2023-03-04T17:20:14;101618.28;;;3.59;69.71
77639;BME280;66802;52.574;14.398;2023-03-04T17:22:41;101620.69;;;3.64;70.30
77639;BME280;66802;52.574;14.398;2023-03-04T17:25:07;101619.91;;;3.62;70.65
77639;BME280;66802;52.574;14.398;2023-03-04T17:27:33;101620.28;;;3.56;71.93
77639;BME280;66802;52.574;14.398;2023-03-04T17:29:58;101620.16;;;3.57;72.02
77639;BME280;66802;52.574;14.398;2023-03-04T17:32:24;101622.16;;;3.54;71.57
77639;BME280;66802;52.574;14.398;2023-03-04T17:34:55;101625.00;;;3.51;72.20
77639;BME280;66802;52.574;14.398;2023-03-04T17:37:21;101625.88;;;3.51;71.88
77639;BME280;66802;52.574;14.398;2023-03-04T17:39:47;101626.91;;;3.49;72.34
77639;BME280;66802;52.574;14.398;2023-03-04T17:42:13;101629.06;;;3.42;72.42
77639;BME280;66802;52.574;14.398;2023-03-04T17:44:38;101625.53;;;3.42;72.23
77639;BME280;66802;52.574;14.398;2023-03-04T17:47:05;101622.00;;;3.41;72.26
77639;BME280;66802;52.574;14.398;2023-03-04T17:49:30;101624.84;;;3.38;72.49
77639;BME280;66802;52.574;14.398;2023-03-04T17:51:59;101624.84;;;3.38;72.73
77639;BME280;66802;52.574;14.398;2023-03-04T17:54:25;101630.38;;;3.35;72.61
77639;BME280;66802;52.574;14.398;2023-03-04T17:56:52;101634.72;;;3.36;72.65
77639;BME280;66802;52.574;14.398;2023-03-04T17:59:17;101633.19;;;3.32;72.52
77639;BME280;66802;52.574;14.398;2023-03-04T18:01:44;101629.59;;;3.33;72.79
77639;BME280;66802;52.574;14.398;2023-03-04T18:04:11;101637.66;;;3.32;72.58
77639;BME280;66802;52.574;14.398;2023-03-04T18:06:37;101636.03;;;3.29;72.73
77639;BME280;66802;52.574;14.398;2023-03-04T18:09:03;101638.09;;;3.24;72.50
77639;BME280;66802;52.574;14.398;2023-03-04T18:11:30;101631.91;;;3.23;72.54
77639;BME280;66802;52.574;14.398;2023-03-04T18:13:56;101632.00;;;3.22;72.79
77639;BME280;66802;52.574;14.398;2023-03-04T18:16:22;101633.88;;;3.20;73.18
77639;BME280;66802;52.574;14.398;2023-03-04T18:18:52;101633.09;;;3.18;73.05
77639;BME280;66802;52.574;14.398;2023-03-04T18:21:19;101628.28;;;3.09;72.66
77639;BME280;66802;52.574;14.398;2023-03-04T18:23:45;101620.28;;;3.09;73.18
77639;BME280;66802;52.574;14.398;2023-03-04T18:26:11;101626.56;;;3.08;72.74
77639;BME280;66802;52.574;14.398;2023-03-04T18:28:37;101633.53;;;3.10;72.37
77639;BME280;66802;52.574;14.398;2023-03-04T18:31:03;101633.84;;;3.04;72.32
77639;BME280;66802;52.574;14.398;2023-03-04T18:33:30;101628.00;;;2.98;72.49
77639;BME280;66802;52.574;14.398;2023-03-04T18:36:04;101629.88;;;2.96;72.50
77639;BME280;66802;52.574;14.398;2023-03-04T18:38:30;101619.38;;;2.92;72.04
77639;BME280;66802;52.574;14.398;2023-03-04T18:40:58;101623.88;;;2.92;72.28
77639;BME280;66802;52.574;14.398;2023-03-04T18:43:25;101628.50;;;2.88;71.64
77639;BME280;66802;52.574;14.398;2023-03-04T18:48:32;101627.28;;;2.78;72.15
77639;BME280;66802;52.574;14.398;2023-03-04T18:51:01;101618.84;;;2.70;71.72
77639;BME280;66802;52.574;14.398;2023-03-04T18:53:28;101625.19;;;2.68;71.79
77639;BME280;66802;52.574;14.398;2023-03-04T18:55:58;101631.78;;;2.61;71.72
77639;BME280;66802;52.574;14.398;2023-03-04T18:58:31;101632.13;;;2.54;72.15
77639;BME280;66802;52.574;14.398;2023-03-04T19:01:01;101628.25;;;2.60;71.43
77639;BME280;66802;52.574;14.398;2023-03-04T19:03:30;101623.41;;;2.51;71.67
77639;BME280;66802;52.574;14.398;2023-03-04T19:05:57;101624.69;;;2.44;71.85